createdAt,value
2023-02-16T00:05:37.918Z,85.38
2023-02-16T00:15:42.266Z,85.29
2023-02-16T00:25:44.942Z,85.33
2023-02-16T00:35:49.024Z,85.39
2023-02-16T00:45:51.879Z,85.49
2023-02-16T00:55:56.027Z,86.60
2023-02-16T01:06:12.850Z,86.24
2023-02-16T01:16:19.725Z,86.18
2023-02-16T01:26:22.890Z,85.84
2023-02-16T01:36:32.514Z,85.67
2023-02-16T01:46:44.065Z,85.51
2023-02-16T01:56:52.631Z,85.50
2023-02-16T02:06:55.319Z,85.90
2023-02-16T02:17:05.232Z,85.96
2023-02-16T02:27:17.477Z,85.82
2023-02-16T02:37:27.717Z,86.02
2023-02-16T02:47:43.813Z,86.47
2023-02-16T02:58:12.767Z,87.26
2023-02-16T03:08:20.054Z,86.70
2023-02-16T03:18:43.821Z,86.89
2023-02-16T03:29:06.512Z,87.48
2023-02-16T03:39:10.473Z,87.34
2023-02-16T03:49:14.729Z,87.44
2023-02-16T03:59:17.344Z,87.52
2023-02-16T04:09:21.355Z,87.54
2023-02-16T04:19:24.777Z,87.90
2023-02-16T04:29:29.226Z,87.92
2023-02-16T04:39:31.901Z,88.31
2023-02-16T04:49:35.933Z,88.19
2023-02-16T04:59:38.899Z,88.00
2023-02-16T05:09:42.863Z,88.34
2023-02-16T05:19:47.821Z,88.12
2023-02-16T05:29:52.048Z,88.57
2023-02-16T05:39:55.911Z,88.63
2023-02-16T05:49:59.959Z,88.74
2023-02-16T06:00:03.325Z,88.68
2023-02-16T06:10:09.024Z,88.51
2023-02-16T06:20:12.247Z,88.30
2023-02-16T06:30:16.591Z,88.41
2023-02-16T06:40:19.369Z,87.96
2023-02-16T06:50:23.501Z,87.81
2023-02-16T07:00:26.458Z,87.88
2023-02-16T07:10:43.661Z,87.27
2023-02-16T07:20:50.241Z,87.41
2023-02-16T07:30:54.247Z,87.58
2023-02-16T07:40:57.144Z,87.17
2023-02-16T07:51:01.964Z,87.03
2023-02-16T08:01:09.599Z,86.92
2023-02-16T08:11:15.245Z,87.09
2023-02-16T08:21:19.357Z,86.87
2023-02-16T08:31:25.814Z,86.83
2023-02-16T08:41:31.316Z,86.38
2023-02-16T08:51:37.990Z,85.78
2023-02-16T09:01:41.535Z,85.56
2023-02-16T09:11:46.086Z,86.03
2023-02-16T09:21:50.592Z,85.74
2023-02-16T09:31:55.713Z,86.54
2023-02-16T09:42:12.700Z,87.93
2023-02-16T09:52:24.144Z,88.39
2023-02-16T10:02:38.124Z,87.97
2023-02-16T10:12:51.474Z,87.88
2023-02-16T10:22:59.953Z,87.49
2023-02-16T10:33:15.815Z,88.82
2023-02-16T10:43:24.454Z,90.04
2023-02-16T10:53:40.594Z,91.11
2023-02-16T11:03:48.697Z,91.69
2023-02-16T11:13:59.533Z,93.60
2023-02-16T11:24:02.800Z,94.58
2023-02-16T11:34:13.138Z,94.92
2023-02-16T11:44:27.689Z,97.79
2023-02-16T11:54:31.694Z,99.71
2023-02-16T12:04:51.623Z,100.65
2023-02-16T12:15:04.203Z,101.01
2023-02-16T12:25:22.399Z,101.07
2023-02-16T12:35:41.246Z,101.31
2023-02-16T12:45:46.124Z,101.16
2023-02-16T12:55:55.205Z,100.91
2023-02-16T13:06:09.171Z,101.03
2023-02-16T13:16:29.601Z,100.99
2023-02-16T13:26:46.910Z,100.41
2023-02-16T13:37:09.434Z,100.20
2023-02-16T13:47:16.137Z,99.97
2023-02-16T13:58:01.273Z,99.15
2023-02-16T14:08:22.595Z,98.11
2023-02-16T14:18:33.669Z,97.45
2023-02-16T14:29:10.050Z,97.36
2023-02-16T14:39:18.764Z,96.42
2023-02-16T14:49:55.160Z,96.82
2023-02-16T15:00:04.024Z,96.65
2023-02-16T15:10:10.129Z,96.91
2023-02-16T15:20:24.929Z,96.26
2023-02-16T15:30:29.716Z,97.15
2023-02-16T15:40:35.253Z,97.50
2023-02-16T15:50:38.418Z,98.84
2023-02-16T16:00:43.624Z,99.37
2023-02-16T16:10:48.294Z,99.33
2023-02-16T16:21:00.832Z,99.60
2023-02-16T16:31:11.505Z,100.68
2023-02-16T16:41:27.632Z,101.48
2023-02-16T16:51:40.141Z,101.77
2023-02-16T17:01:45.946Z,102.49
2023-02-16T17:11:48.633Z,103.61
2023-02-16T17:21:52.542Z,103.99
2023-02-16T17:31:55.261Z,104.11
2023-02-16T17:42:00.135Z,103.21
2023-02-16T17:52:02.756Z,103.59
2023-02-16T18:02:07.171Z,103.31
2023-02-16T18:12:10.484Z,102.86
2023-02-16T18:22:14.493Z,102.39
2023-02-16T18:32:17.089Z,103.36
2023-02-16T18:42:21.084Z,102.95
2023-02-16T18:52:24.353Z,102.72
2023-02-16T19:02:28.320Z,102.84
2023-02-16T19:12:31.018Z,103.83
2023-02-16T19:22:37.142Z,103.83
2023-02-16T19:32:40.926Z,103.88
2023-02-16T19:42:45.258Z,104.49
2023-02-16T19:52:47.848Z,105.03
2023-02-16T20:02:53.351Z,104.97
2023-02-16T20:12:55.991Z,105.59
2023-02-16T20:23:00.126Z,105.63
2023-02-16T20:33:02.733Z,105.56
2023-02-16T20:43:06.743Z,105.93
2023-02-16T20:53:09.589Z,106.04
2023-02-16T21:03:13.539Z,104.49
2023-02-16T21:13:16.153Z,104.84
2023-02-16T21:23:20.157Z,105.10
2023-02-16T21:33:23.375Z,104.89
2023-02-16T21:43:27.450Z,104.89
2023-02-16T21:53:30.941Z,105.78
2023-02-16T22:03:34.946Z,105.85
2023-02-16T22:13:38.238Z,105.35
2023-02-16T22:23:42.420Z,106.05
2023-02-16T22:33:45.113Z,106.72
2023-02-16T22:43:52.388Z,107.29
2023-02-16T22:53:55.009Z,107.27
2023-02-16T23:04:00.985Z,107.32
2023-02-16T23:14:04.681Z,107.17
2023-02-16T23:24:12.663Z,107.56
2023-02-16T23:34:16.396Z,106.99
2023-02-16T23:44:20.523Z,107.65
2023-02-16T23:54:23.104Z,107.67
